createdAt,value
2019-02-23T00:00:34.473Z,95.00
2019-02-23T00:03:08.827Z,95.40
2019-02-23T00:05:49.289Z,95.80
2019-02-23T00:08:22.748Z,96.60
2019-02-23T00:10:56.864Z,96.70
2019-02-23T00:13:32.127Z,97.20
2019-02-23T00:16:05.122Z,98.10
2019-02-23T00:18:37.874Z,98.20
2019-02-23T00:21:10.943Z,97.50
2019-02-23T00:23:43.345Z,97.60
2019-02-23T00:26:17.005Z,97.90
2019-02-23T00:28:52.898Z,98.10
2019-02-23T00:31:25.847Z,98.80
2019-02-23T00:33:58.723Z,99.40
2019-02-23T00:36:31.821Z,99.20
2019-02-23T00:39:05.323Z,97.60
2019-02-23T00:41:40.168Z,97.90
2019-02-23T00:44:12.745Z,98.60
2019-02-23T00:46:45.714Z,98.60
2019-02-23T00:49:18.332Z,98.30
2019-02-23T00:51:51.932Z,99.30
2019-02-23T00:54:24.922Z,99.00
2019-02-23T00:56:57.747Z,99.30
2019-02-23T00:59:30.572Z,98.90
2019-02-23T01:02:03.373Z,98.70
2019-02-23T01:04:36.477Z,98.90
2019-02-23T01:07:09.327Z,99.90
2019-02-23T01:09:42.279Z,99.90
2019-02-23T01:12:15.152Z,99.90
2019-02-23T01:14:47.934Z,99.90
2019-02-23T01:17:20.679Z,99.90
2019-02-23T01:19:53.116Z,99.90
2019-02-23T01:22:26.462Z,99.90
2019-02-23T01:25:02.710Z,99.90
2019-02-23T01:27:35.919Z,99.90
2019-02-23T01:30:10.794Z,99.90
2019-02-23T01:32:43.467Z,99.90
2019-02-23T01:35:17.213Z,99.90
2019-02-23T01:37:49.658Z,99.90
2019-02-23T01:40:22.149Z,99.90
2019-02-23T01:42:54.739Z,99.90
2019-02-23T01:45:28.223Z,99.90
2019-02-23T01:48:01.750Z,99.90
2019-02-23T01:50:34.461Z,99.90
2019-02-23T01:53:06.698Z,99.90
2019-02-23T01:55:39.268Z,99.90
2019-02-23T01:58:12.336Z,99.90
2019-02-23T02:00:45.345Z,99.90
2019-02-23T02:03:17.787Z,99.90
2019-02-23T02:05:50.699Z,99.90
2019-02-23T02:08:23.858Z,99.90
2019-02-23T02:10:56.679Z,99.90
2019-02-23T02:13:29.625Z,99.90
2019-02-23T02:16:02.078Z,99.90
2019-02-23T02:18:34.878Z,99.90
2019-02-23T02:21:08.034Z,99.90
2019-02-23T02:23:40.887Z,99.90
2019-02-23T02:26:13.937Z,99.90
2019-02-23T02:28:46.646Z,99.90
2019-02-23T02:31:19.453Z,99.90
2019-02-23T02:34:12.091Z,99.90
2019-02-23T02:36:44.917Z,99.90
2019-02-23T02:39:18.361Z,99.90
2019-02-23T02:41:51.182Z,99.90
2019-02-23T02:44:23.375Z,99.90
2019-02-23T02:46:56.400Z,99.90
2019-02-23T02:49:29.299Z,99.90
2019-02-23T02:52:01.876Z,99.90
2019-02-23T02:54:34.758Z,99.90
2019-02-23T02:57:07.157Z,99.90
2019-02-23T02:59:40.120Z,99.90
2019-02-23T03:02:12.713Z,99.90
2019-02-23T03:04:45.155Z,99.90
2019-02-23T03:07:18.068Z,99.90
2019-02-23T03:09:50.326Z,99.90
2019-02-23T03:12:22.892Z,99.90
2019-02-23T03:14:55.301Z,99.90
2019-02-23T03:17:27.771Z,99.90
2019-02-23T03:20:00.614Z,99.90
2019-02-23T03:22:33.415Z,99.90
2019-02-23T03:25:05.987Z,99.90
2019-02-23T03:27:39.694Z,99.90
2019-02-23T03:30:13.923Z,99.90
2019-02-23T03:32:46.695Z,99.90
2019-02-23T03:35:19.300Z,99.90
2019-02-23T03:37:51.816Z,99.90
2019-02-23T03:40:24.137Z,99.90
2019-02-23T03:42:57.134Z,99.90
2019-02-23T03:45:30.099Z,99.90
2019-02-23T03:48:02.987Z,99.90
2019-02-23T03:50:35.614Z,99.90
2019-02-23T03:53:08.192Z,99.90
2019-02-23T03:55:41.392Z,99.90
2019-02-23T03:58:14.045Z,99.90
2019-02-23T04:00:46.352Z,99.90
2019-02-23T04:03:18.498Z,99.90
2019-02-23T04:05:51.277Z,99.90
2019-02-23T04:08:23.603Z,99.90
2019-02-23T04:10:56.584Z,99.90
2019-02-23T04:13:29.274Z,99.90
2019-02-23T04:16:01.805Z,99.90
2019-02-23T04:18:34.483Z,99.90
2019-02-23T04:21:07.711Z,99.90
2019-02-23T04:23:40.436Z,99.90
2019-02-23T04:26:12.731Z,99.90
2019-02-23T04:28:46.045Z,99.90
2019-02-23T04:31:18.626Z,99.90
2019-02-23T04:33:53.170Z,99.90
2019-02-23T04:36:25.718Z,99.90
2019-02-23T04:38:58.303Z,99.90
2019-02-23T04:41:30.779Z,99.90
2019-02-23T04:44:03.381Z,99.90
2019-02-23T04:46:36.032Z,99.90
2019-02-23T04:49:08.641Z,99.90
2019-02-23T04:51:41.677Z,99.90
2019-02-23T04:54:14.499Z,99.90
2019-02-23T04:56:47.071Z,99.90
2019-02-23T04:59:19.447Z,99.90
2019-02-23T05:01:51.946Z,99.90
2019-02-23T05:04:24.273Z,99.90
2019-02-23T05:06:56.879Z,99.90
2019-02-23T05:09:29.768Z,99.90
2019-02-23T05:12:02.435Z,99.90
2019-02-23T05:14:34.739Z,99.90
2019-02-23T05:17:07.272Z,99.90
2019-02-23T05:19:39.600Z,99.90
2019-02-23T05:22:11.929Z,99.90
2019-02-23T05:24:45.176Z,99.90
2019-02-23T05:27:18.520Z,99.90
2019-02-23T05:29:51.392Z,99.90
2019-02-23T05:32:23.961Z,99.90
2019-02-23T05:34:56.601Z,99.90
2019-02-23T05:37:29.436Z,99.90
2019-02-23T05:40:02.026Z,99.90
2019-02-23T05:42:34.476Z,99.90
2019-02-23T05:45:07.295Z,99.90
2019-02-23T05:47:39.793Z,99.90
2019-02-23T05:50:12.838Z,99.90
2019-02-23T05:52:45.349Z,99.90
2019-02-23T05:55:18.219Z,99.90
2019-02-23T05:57:51.437Z,99.90
2019-02-23T06:00:23.981Z,99.90
2019-02-23T06:02:56.832Z,99.90
2019-02-23T06:05:29.298Z,99.90
2019-02-23T06:08:02.216Z,99.90
2019-02-23T06:10:34.902Z,99.90
2019-02-23T06:13:07.063Z,99.90
2019-02-23T06:15:39.509Z,99.90
2019-02-23T06:18:12.348Z,99.90
2019-02-23T06:20:45.101Z,99.90
2019-02-23T06:23:17.572Z,99.90
2019-02-23T06:25:50.622Z,99.90
2019-02-23T06:28:23.320Z,99.90
2019-02-23T06:30:55.728Z,99.90
2019-02-23T06:33:28.494Z,99.90
2019-02-23T06:36:01.617Z,99.90
2019-02-23T06:38:34.037Z,99.90
2019-02-23T06:41:06.837Z,99.90
2019-02-23T06:43:39.422Z,99.90
2019-02-23T06:46:11.849Z,99.90
2019-02-23T06:48:44.397Z,99.90
2019-02-23T06:51:17.663Z,99.90
2019-02-23T06:53:50.439Z,99.90
2019-02-23T06:56:23.384Z,99.90
2019-02-23T06:58:56.326Z,99.90
2019-02-23T07:01:28.938Z,99.90
2019-02-23T07:04:01.622Z,99.90
2019-02-23T07:06:34.456Z,99.90
2019-02-23T07:09:08.883Z,99.90
2019-02-23T07:11:41.258Z,99.90
2019-02-23T07:14:13.815Z,99.90
2019-02-23T07:16:46.410Z,99.90
2019-02-23T07:19:19.089Z,99.90
2019-02-23T07:21:51.997Z,99.90
2019-02-23T07:24:24.407Z,99.90
2019-02-23T07:26:57.269Z,99.90
2019-02-23T07:29:30.162Z,99.90
2019-02-23T07:32:02.918Z,99.90
2019-02-23T07:34:35.370Z,99.90
2019-02-23T07:37:07.674Z,99.90
2019-02-23T07:39:40.295Z,99.90
2019-02-23T07:42:13.213Z,99.90
2019-02-23T07:44:45.767Z,99.90
2019-02-23T07:47:19.019Z,99.90
2019-02-23T07:49:51.958Z,99.90
2019-02-23T07:52:26.557Z,99.90
2019-02-23T07:54:58.825Z,99.90
2019-02-23T07:57:31.528Z,99.90
2019-02-23T08:00:04.115Z,99.90
2019-02-23T08:02:36.653Z,99.90
2019-02-23T08:05:09.369Z,99.90
2019-02-23T08:07:42.147Z,99.90
2019-02-23T08:10:14.929Z,99.90
2019-02-23T08:12:48.325Z,99.90
2019-02-23T08:15:21.166Z,99.90
2019-02-23T08:17:53.996Z,99.90
2019-02-23T08:20:26.543Z,99.90
2019-02-23T08:22:59.152Z,99.90
2019-02-23T08:25:31.954Z,99.90
2019-02-23T08:28:04.335Z,99.90
2019-02-23T08:30:37.060Z,99.90
2019-02-23T08:33:09.659Z,99.90
2019-02-23T08:35:42.855Z,99.90
2019-02-23T08:38:15.285Z,99.90
2019-02-23T08:40:47.771Z,99.90
2019-02-23T08:43:20.864Z,99.90
2019-02-23T08:45:53.279Z,99.90
2019-02-23T08:48:26.194Z,99.90
2019-02-23T08:50:59.142Z,99.90
2019-02-23T08:53:31.596Z,99.90
2019-02-23T08:56:04.086Z,99.90
2019-02-23T08:58:36.874Z,99.90
2019-02-23T09:01:09.238Z,99.90
2019-02-23T09:03:42.127Z,99.90
2019-02-23T09:06:14.663Z,99.90
2019-02-23T09:08:47.179Z,99.90
2019-02-23T09:11:19.812Z,99.90
2019-02-23T09:13:52.350Z,99.90
2019-02-23T09:16:25.279Z,99.90
2019-02-23T09:18:57.886Z,99.90
2019-02-23T09:21:30.483Z,99.90
2019-02-23T09:24:03.071Z,99.90
2019-02-23T09:26:36.039Z,99.90
2019-02-23T09:29:08.627Z,99.90
2019-02-23T09:31:42.001Z,99.90
2019-02-23T09:34:14.333Z,99.90
2019-02-23T09:36:46.780Z,99.90
2019-02-23T09:39:19.444Z,99.90
2019-02-23T09:41:52.096Z,99.90
2019-02-23T09:44:25.378Z,99.90
2019-02-23T09:46:58.469Z,99.90
2019-02-23T09:49:32.070Z,99.90
2019-02-23T09:52:04.427Z,99.90
2019-02-23T09:54:37.185Z,99.90
2019-02-23T09:57:10.309Z,99.90
2019-02-23T09:59:43.541Z,99.90
2019-02-23T10:02:15.997Z,99.90
2019-02-23T10:04:49.103Z,99.90
2019-02-23T10:07:21.565Z,99.90
2019-02-23T10:09:54.178Z,99.90
2019-02-23T10:12:26.672Z,99.90
2019-02-23T10:14:58.976Z,99.90
2019-02-23T10:17:32.261Z,99.90
2019-02-23T10:20:05.161Z,99.90
2019-02-23T10:22:39.541Z,99.90
2019-02-23T10:25:12.218Z,99.90
2019-02-23T10:27:44.626Z,99.90
2019-02-23T10:30:17.208Z,99.90
2019-02-23T10:32:50.202Z,99.90
2019-02-23T10:35:22.929Z,99.90
2019-02-23T10:37:55.809Z,99.90
2019-02-23T10:40:28.238Z,99.90
2019-02-23T10:43:01.226Z,99.90
2019-02-23T10:45:34.708Z,99.90
2019-02-23T10:48:07.323Z,99.90
2019-02-23T10:50:40.101Z,99.90
2019-02-23T10:53:12.847Z,99.90
2019-02-23T10:55:45.564Z,99.90
2019-02-23T10:58:18.118Z,99.90
2019-02-23T11:00:51.200Z,99.90
2019-02-23T11:03:23.911Z,99.90
2019-02-23T11:05:56.690Z,99.90
2019-02-23T11:08:29.056Z,99.90
2019-02-23T11:11:01.694Z,99.90
2019-02-23T11:13:34.793Z,99.90
2019-02-23T11:16:07.306Z,99.90
2019-02-23T11:18:39.792Z,99.90
2019-02-23T11:21:13.658Z,99.90
2019-02-23T11:23:46.462Z,99.90
2019-02-23T11:26:18.869Z,99.90
2019-02-23T11:28:51.145Z,99.90
2019-02-23T11:31:23.928Z,99.90
2019-02-23T11:33:56.769Z,99.90
2019-02-23T11:36:29.007Z,99.90
2019-02-23T11:39:02.143Z,99.90
2019-02-23T11:41:34.632Z,99.90
2019-02-23T11:44:07.279Z,99.90
2019-02-23T11:46:39.986Z,99.90
2019-02-23T11:49:13.187Z,99.90
2019-02-23T11:51:46.070Z,99.90
2019-02-23T11:54:18.670Z,99.90
2019-02-23T11:56:51.686Z,99.90
2019-02-23T11:59:24.507Z,99.90
2019-02-23T12:01:56.904Z,99.90
2019-02-23T12:04:29.455Z,99.90
2019-02-23T12:07:02.186Z,99.90
2019-02-23T12:09:34.814Z,99.90
2019-02-23T12:12:07.392Z,99.90
2019-02-23T12:14:40.259Z,99.90
2019-02-23T12:17:13.592Z,99.90
2019-02-23T12:19:46.574Z,99.90
2019-02-23T12:22:18.817Z,99.90
2019-02-23T12:24:51.343Z,99.90
2019-02-23T12:27:24.182Z,99.90
2019-02-23T12:29:56.440Z,99.90
2019-02-23T12:32:29.141Z,99.90
2019-02-23T12:35:01.556Z,99.90
2019-02-23T12:37:34.093Z,99.90
2019-02-23T12:40:06.766Z,99.90
2019-02-23T12:42:39.165Z,99.90
2019-02-23T12:45:12.234Z,99.90
2019-02-23T12:47:45.281Z,99.90
2019-02-23T12:50:18.013Z,99.90
2019-02-23T12:52:50.461Z,99.90
2019-02-23T12:55:23.150Z,99.90
2019-02-23T12:57:55.611Z,99.90
2019-02-23T13:00:28.203Z,99.90
2019-02-23T13:03:00.680Z,99.90
2019-02-23T13:05:33.356Z,99.90
2019-02-23T13:08:06.206Z,99.90
2019-02-23T13:10:38.731Z,99.90
2019-02-23T13:13:33.532Z,99.90
2019-02-23T13:16:53.403Z,99.90
2019-02-23T13:19:43.085Z,99.90
2019-02-23T13:22:49.650Z,99.90
2019-02-23T13:25:39.971Z,99.90
2019-02-23T13:28:53.083Z,99.90
2019-02-23T13:31:33.233Z,99.90
2019-02-23T13:34:45.648Z,99.90
2019-02-23T13:37:59.593Z,99.90
2019-02-23T13:41:11.081Z,99.90
2019-02-23T13:44:22.165Z,99.90
2019-02-23T13:47:19.095Z,99.90
2019-02-23T13:50:39.302Z,99.90
2019-02-23T13:53:50.057Z,99.90
2019-02-23T13:56:53.887Z,99.90
2019-02-23T14:00:03.535Z,99.80
2019-02-23T14:03:17.729Z,99.90
2019-02-23T14:06:01.809Z,98.80
2019-02-23T14:09:15.847Z,97.00
2019-02-23T14:12:23.705Z,95.00
2019-02-23T14:15:40.550Z,97.30
2019-02-23T14:18:31.819Z,92.10
2019-02-23T14:21:57.660Z,93.90
2019-02-23T14:24:52.031Z,95.50
2019-02-23T14:27:59.948Z,96.70
2019-02-23T14:30:59.914Z,94.60
2019-02-23T14:34:25.872Z,95.50
2019-02-23T14:37:32.046Z,92.10
2019-02-23T14:40:20.689Z,90.30
2019-02-23T14:43:14.647Z,89.30
2019-02-23T14:46:12.282Z,90.20
2019-02-23T14:49:12.866Z,91.20
2019-02-23T14:52:34.210Z,91.30
2019-02-23T14:55:13.110Z,90.30
2019-02-23T14:58:24.212Z,86.20
2019-02-23T15:01:14.508Z,89.00
2019-02-23T15:04:29.530Z,83.00
2019-02-23T15:07:23.736Z,81.90
2019-02-23T15:10:06.367Z,82.90
2019-02-23T15:13:02.711Z,85.00
2019-02-23T15:16:17.217Z,81.10
2019-02-23T15:19:11.763Z,86.80
2019-02-23T15:22:01.654Z,85.00
2019-02-23T15:25:22.651Z,84.00
2019-02-23T15:28:26.700Z,82.00
2019-02-23T15:31:22.387Z,81.00
2019-02-23T15:34:29.168Z,76.20
2019-02-23T15:37:31.337Z,76.80
2019-02-23T15:40:28.222Z,73.50
2019-02-23T15:43:55.349Z,73.80
2019-02-23T15:46:43.421Z,74.90
2019-02-23T15:49:32.994Z,75.60
2019-02-23T15:52:10.259Z,74.40
2019-02-23T15:54:43.174Z,73.80
2019-02-23T15:57:16.511Z,70.20
2019-02-23T15:59:49.006Z,75.40
2019-02-23T16:02:21.768Z,75.80
2019-02-23T16:04:54.095Z,72.60
2019-02-23T16:07:26.844Z,70.80
2019-02-23T16:09:59.275Z,67.30
2019-02-23T16:12:32.090Z,65.30
2019-02-23T16:15:04.980Z,65.50
2019-02-23T16:17:37.592Z,61.30
2019-02-23T16:20:11.325Z,61.90
2019-02-23T16:22:43.917Z,59.80
2019-02-23T16:25:16.549Z,59.40
2019-02-23T16:27:48.997Z,58.00
2019-02-23T16:30:21.149Z,57.70
2019-02-23T16:32:53.737Z,56.90
2019-02-23T16:35:26.791Z,55.60
2019-02-23T16:37:59.668Z,55.60
2019-02-23T16:40:31.969Z,53.00
2019-02-23T16:43:04.279Z,53.10
2019-02-23T16:45:37.067Z,51.50
2019-02-23T16:48:09.918Z,51.30
2019-02-23T16:50:42.513Z,51.90
2019-02-23T16:53:15.275Z,50.80
2019-02-23T16:55:51.121Z,49.60
2019-02-23T16:58:22.279Z,49.40
2019-02-23T17:00:55.023Z,47.10
2019-02-23T17:03:27.329Z,46.40
2019-02-23T17:05:59.616Z,44.90
2019-02-23T17:08:32.281Z,41.80
2019-02-23T17:11:04.709Z,42.80
2019-02-23T17:13:37.096Z,44.50
2019-02-23T17:16:13.558Z,44.40
2019-02-23T17:18:46.076Z,46.80
2019-02-23T18:55:13.529Z,47.10
2019-02-23T18:57:46.509Z,49.50
2019-02-23T19:00:24.436Z,45.90
2019-02-23T19:02:53.107Z,46.20
2019-02-23T19:05:25.990Z,48.60
2019-02-23T19:07:58.513Z,50.30
2019-02-23T19:10:31.493Z,51.00
2019-02-23T19:13:04.169Z,49.30
2019-02-23T19:15:36.348Z,47.90
2019-02-23T19:18:08.814Z,51.20
2019-02-23T19:20:41.454Z,50.10
2019-02-23T19:23:14.345Z,52.20
2019-02-23T19:25:46.854Z,50.30
2019-02-23T19:28:19.901Z,50.90
2019-02-23T19:30:52.291Z,51.50
2019-02-23T19:33:25.158Z,49.60
2019-02-23T19:35:57.727Z,48.40
2019-02-23T19:38:31.581Z,50.90
2019-02-23T19:41:04.514Z,49.20
2019-02-23T19:43:37.312Z,50.80
2019-02-23T19:46:10.197Z,46.60
2019-02-23T19:48:42.836Z,48.40
2019-02-23T19:51:15.211Z,48.60
2019-02-23T19:53:47.625Z,52.90
2019-02-23T19:56:20.230Z,55.00
2019-02-23T19:58:52.780Z,53.70
2019-02-23T20:01:25.255Z,52.30
2019-02-23T20:03:57.705Z,49.70
2019-02-23T20:06:30.307Z,46.20
2019-02-23T20:09:02.737Z,45.70
2019-02-23T20:11:35.183Z,45.20
2019-02-23T20:14:07.642Z,43.90
2019-02-23T20:16:40.268Z,43.80
2019-02-23T20:19:12.862Z,45.10
2019-02-23T20:21:45.573Z,44.10
2019-02-23T20:24:18.398Z,42.30
2019-02-23T20:26:55.708Z,44.90
2019-02-23T20:29:24.878Z,48.00
2019-02-23T20:31:57.406Z,49.60
2019-02-23T20:34:30.085Z,54.20
2019-02-23T20:37:02.375Z,55.00
2019-02-23T20:39:35.241Z,59.80
2019-02-23T20:42:07.396Z,63.40
2019-02-23T20:44:41.164Z,64.60
2019-02-23T20:47:13.985Z,67.00
2019-02-23T20:49:47.357Z,65.50
2019-02-23T20:52:19.787Z,67.60
2019-02-23T20:54:52.389Z,67.50
2019-02-23T20:57:25.748Z,69.10
2019-02-23T20:59:58.841Z,66.10
2019-02-23T21:02:31.815Z,67.70
2019-02-23T21:05:04.026Z,67.70
2019-02-23T21:07:36.461Z,67.80
2019-02-23T21:10:09.348Z,70.20
2019-02-23T21:12:42.246Z,71.30
2019-02-23T21:15:14.913Z,70.50
2019-02-23T21:17:47.497Z,71.20
2019-02-23T21:20:20.269Z,72.60
2019-02-23T21:22:53.009Z,71.80
2019-02-23T21:25:25.284Z,71.70
2019-02-23T21:27:58.305Z,71.20
2019-02-23T21:30:31.467Z,71.90
2019-02-23T21:33:04.706Z,71.90
2019-02-23T21:35:37.577Z,72.80
2019-02-23T21:38:10.004Z,74.80
2019-02-23T21:40:42.729Z,74.90
2019-02-23T21:43:15.173Z,75.50
2019-02-23T21:45:47.451Z,76.10
2019-02-23T21:48:19.871Z,75.30
2019-02-23T21:50:52.520Z,77.40
2019-02-23T21:53:24.927Z,77.80
2019-02-23T21:55:58.221Z,76.10
2019-02-23T21:58:30.936Z,78.00
2019-02-23T22:01:03.591Z,76.90
2019-02-23T22:03:37.721Z,78.40
2019-02-23T22:06:10.754Z,78.60
2019-02-23T22:08:43.351Z,78.40
2019-02-23T22:11:15.641Z,80.40
2019-02-23T22:13:48.415Z,82.80
2019-02-23T22:16:20.756Z,83.40
2019-02-23T22:18:53.198Z,85.10
2019-02-23T22:21:26.180Z,85.10
2019-02-23T22:23:58.912Z,85.10
2019-02-23T22:26:31.584Z,86.30
2019-02-23T22:29:04.239Z,87.80
2019-02-23T22:31:37.212Z,86.40
2019-02-23T22:34:09.851Z,86.70
2019-02-23T22:36:42.511Z,87.40
2019-02-23T22:39:14.937Z,87.50
2019-02-23T22:41:49.804Z,88.10
2019-02-23T22:44:22.200Z,88.50
2019-02-23T22:46:54.871Z,90.00
2019-02-23T22:49:27.294Z,90.10
2019-02-23T22:51:59.898Z,90.50
2019-02-23T22:54:32.325Z,91.10
2019-02-23T22:57:04.877Z,91.20
2019-02-23T22:59:37.751Z,91.40
2019-02-23T23:02:10.695Z,91.30
2019-02-23T23:04:43.627Z,91.40
2019-02-23T23:07:16.403Z,91.10
2019-02-23T23:09:49.677Z,90.70
2019-02-23T23:12:22.590Z,90.50
2019-02-23T23:14:55.574Z,90.50
2019-02-23T23:17:28.149Z,90.40
2019-02-23T23:20:00.881Z,90.10
2019-02-23T23:22:33.039Z,90.40
2019-02-23T23:25:05.606Z,90.00
2019-02-23T23:27:38.462Z,90.00
2019-02-23T23:30:11.739Z,89.80
2019-02-23T23:32:44.490Z,90.20
2019-02-23T23:35:17.683Z,90.20
2019-02-23T23:37:49.982Z,90.60
2019-02-23T23:40:22.691Z,90.40
2019-02-23T23:42:58.084Z,90.70
2019-02-23T23:45:29.146Z,90.80
2019-02-23T23:48:02.231Z,91.60
2019-02-23T23:50:34.717Z,91.60
2019-02-23T23:53:07.294Z,91.20
2019-02-23T23:55:39.657Z,91.90
2019-02-23T23:58:12.855Z,91.80
